King of Scandinavia — OVOL2 — position and weather

sailwx.info

Track history (hours):
 
Tides and Currents Weather Stations Pressure Air Temp Water Temp Dewpoint Dewpoint Depression Visibility Wind Speed Wind Dir Waves Ship Positions

King of Scandinavia

Ship's website: http://www.dfds.co.uk/DSW/EN/OnBoard/na/KING.htm

Last reported at 2018-Feb-22 17:00 UTC. Time now 2018-Feb-22 17:10 UTC.
Position N 52°33' E 004°21'.

Length 166 m; beam 27.6 m; draft 6.2 m.

Type: Ship. MMSI: 220449000.

Date/timePositionNaut miles runAvg speedWind from/ knotsBaromVisibWave heightAir tempDewpointWater temp
2018-Feb-22 17:00N 52°33' E 004°21'816.4
2018-Feb-22 16:30N 52°28' E 004°32'2 3.6
2018-Feb-22 16:00N 52°28' E 004°35'0 0.0
2018-Feb-22 15:29N 52°28' E 004°35'0 0.0
2018-Feb-22 14:59N 52°28' E 004°35'0 0.0
2018-Feb-22 14:29N 52°28' E 004°35'0 0.0
2018-Feb-22 13:53N 52°28' E 004°35'0 0.0
2018-Feb-22 13:26N 52°28' E 004°35'0 0.0
2018-Feb-22 12:59N 52°28' E 004°35'0 0.0
2018-Feb-22 12:29N 52°28' E 004°35'0 0.0
2018-Feb-22 11:59N 52°28' E 004°35'0 0.0
2018-Feb-22 11:29N 52°28' E 004°35'0 0.0
2018-Feb-22 10:59N 52°28' E 004°35'0 0.0
2018-Feb-22 10:29N 52°28' E 004°35'0 0.0
2018-Feb-22 09:59N 52°28' E 004°35'0 0.0
2018-Feb-22 09:29N 52°28' E 004°35'0 0.0
2018-Feb-22 08:59N 52°28' E 004°35'0 0.4
2018-Feb-22 08:30N 52°28' E 004°35'4 7.7
2018-Feb-22 08:00N 52°29' E 004°29'713.8
2018-Feb-22 07:30N 52°34' E 004°21'815.9
2018-Feb-22 07:00N 52°39' E 004°11'22220.7
2018-Feb-21 20:16N 54°49' W 000°55'1 2.5
2018-Feb-21 20:01N 54°49' W 000°56'0 0.0
2018-Feb-21 19:31N 54°49' W 000°56'1 1.3
2018-Feb-21 19:01N 54°49' W 000°55'0 0.7
2018-Feb-21 18:31N 54°49' W 000°54'1121.0
2018-Feb-21 18:01N 54°55' W 001°09'1019.8
2018-Feb-21 17:31N 55°01' W 001°23'3 5.1
2018-Feb-21 17:01N 54°59' W 001°27'0 0.1
2018-Feb-21 16:30N 54°59' W 001°27'0 0.0
2018-Feb-21 16:01N 54°59' W 001°27'0 0.0
2018-Feb-21 15:31N 54°59' W 001°27'0 0.0
2018-Feb-21 15:01N 54°59' W 001°27'0 0.0
2018-Feb-21 14:31N 54°59' W 001°27'0 0.0
2018-Feb-21 14:01N 54°59' W 001°27'0 0.0
2018-Feb-21 13:31N 54°59' W 001°27'0 0.0
2018-Feb-21 13:00N 54°59' W 001°27'0 0.0
2018-Feb-21 12:31N 54°59' W 001°27'0 0.0
2018-Feb-21 12:01N 54°59' W 001°27'0 0.0
2018-Feb-21 11:30N 54°59' W 001°27'0 0.0
2018-Feb-21 11:01N 54°59' W 001°27'0 0.0
2018-Feb-21 10:31N 54°59' W 001°27'0 0.0
2018-Feb-21 10:01N 54°59' W 001°27'1 2.4
2018-Feb-21 09:30N 55°00' W 001°26'0 0.5
2018-Feb-21 08:58N 55°00' W 001°26'817.2
2018-Feb-21 08:31N 54°58' W 001°13'713.6
2018-Feb-21 08:01N 54°54' W 001°04'19715.7
2018-Feb-20 19:27N 53°00' E 003°31'816.1
2018-Feb-20 18:59N 52°56' E 003°41'816.2
2018-Feb-20 18:30N 52°51' E 003°51'816.3
2018-Feb-20 18:00N 52°44' E 003°59'1316.6
2018-Feb-20 17:14N 52°37' E 004°16'417.0
2018-Feb-20 17:00N 52°34' E 004°20'816.5
2018-Feb-20 16:31N 52°29' E 004°30'3 5.9
2018-Feb-20 16:00N 52°28' E 004°35'0 0.0
2018-Feb-20 15:28N 52°28' E 004°35'0 0.0
2018-Feb-20 14:58N 52°28' E 004°35'0 0.0
2018-Feb-20 14:28N 52°28' E 004°35'0 0.0
2018-Feb-20 13:58N 52°28' E 004°35'0 0.0
2018-Feb-20 13:28N 52°28' E 004°35'0 0.0
2018-Feb-20 12:58N 52°28' E 004°35'0 0.0
2018-Feb-20 12:28N 52°28' E 004°35'0 0.0
2018-Feb-20 11:58N 52°28' E 004°35'0 0.0
2018-Feb-20 11:28N 52°28' E 004°35'0 0.0
2018-Feb-20 10:58N 52°28' E 004°35'0 0.0
2018-Feb-20 10:28N 52°28' E 004°35'0 0.0
2018-Feb-20 09:58N 52°28' E 004°35'0 0.0
2018-Feb-20 09:28N 52°28' E 004°35'0 0.0
2018-Feb-20 08:55N 52°28' E 004°35'0 0.2
2018-Feb-20 08:30N 52°28' E 004°35'4 8.0
2018-Feb-20 08:00N 52°29' E 004°29'714.2
2018-Feb-20 07:30N 52°34' E 004°21'815.7
2018-Feb-20 07:00N 52°39' E 004°11'917.3
2018-Feb-20 06:30N 52°45' E 004°00'1217.4
2018-Feb-20 05:47N 52°53' E 003°44'20120.9
2018-Feb-19 20:09N 54°49' W 000°54'0 0.0
2018-Feb-19 20:00N 54°49' W 000°54'0 0.1
2018-Feb-19 19:30N 54°49' W 000°54'6 8.9
2018-Feb-19 18:51N 54°52' W 001°02'0 0.0
2018-Feb-19 18:11N 54°52' W 001°02'1460.8
2018-Feb-19 17:58N 55°00' W 001°21'3 5.9
2018-Feb-19 17:31N 55°00' W 001°26'0 0.6
2018-Feb-19 17:00N 55°00' W 001°27'1 1.6
2018-Feb-19 16:31N 54°59' W 001°27'0 0.0
2018-Feb-19 15:54N 54°59' W 001°27'0 0.0
2018-Feb-19 15:23N 54°59' W 001°27'0 0.0
2018-Feb-19 14:53N 54°59' W 001°27'0 0.0
2018-Feb-19 14:20N 54°59' W 001°27'0 0.0
2018-Feb-19 13:56N 54°59' W 001°27'0 0.0
2018-Feb-19 13:26N 54°59' W 001°27'0 0.0
2018-Feb-19 12:56N 54°59' W 001°27'0 0.0
2018-Feb-19 12:31N 54°59' W 001°27'0 0.0
2018-Feb-19 12:01N 54°59' W 001°27'0 0.0
2018-Feb-19 11:31N 54°59' W 001°27'0 0.0
2018-Feb-19 10:59N 54°59' W 001°27'0 0.0
2018-Feb-19 10:29N 54°59' W 001°27'4 7.9
2018-Feb-19 10:01N 55°01' W 001°21'0 0.2
2018-Feb-19 09:31N 55°01' W 001°21'0 0.9
2018-Feb-19 09:01N 55°00' W 001°20'612.1
2018-Feb-19 08:31N 54°57' W 001°12'4 8.3
2018-Feb-19 08:00N 54°55' W 001°06'1121.6
2018-Feb-19 07:30N 54°49' W 000°50'21215.7
2018-Feb-18 17:58N 52°45' E 004°02'1216.4
2018-Feb-18 17:14N 52°37' E 004°17'416.8
2018-Feb-18 17:00N 52°34' E 004°21'816.3
2018-Feb-18 16:31N 52°29' E 004°31'3 5.5
2018-Feb-18 16:00N 52°28' E 004°35'0 0.0
2018-Feb-18 15:31N 52°28' E 004°35'0 0.0
2018-Feb-18 14:55N 52°28' E 004°35'0 0.0
2018-Feb-18 14:31N 52°28' E 004°35'0 0.0
2018-Feb-18 14:01N 52°28' E 004°35'0 0.0
2018-Feb-18 13:31N 52°28' E 004°35'0 0.0
2018-Feb-18 13:01N 52°28' E 004°35'0 0.0
2018-Feb-18 12:31N 52°28' E 004°35'0 0.0
2018-Feb-18 11:55N 52°28' E 004°35'0 0.0
2018-Feb-18 11:22N 52°28' E 004°35'0 0.0
2018-Feb-18 11:01N 52°28' E 004°35'0 0.0
2018-Feb-18 10:31N 52°28' E 004°35'0 0.0
2018-Feb-18 10:01N 52°28' E 004°35'0 0.0
2018-Feb-18 09:31N 52°28' E 004°35'0 0.0
2018-Feb-18 08:59N 52°28' E 004°35'2 3.4
2018-Feb-18 08:30N 52°28' E 004°32'612.7
2018-Feb-18 08:00N 52°32' E 004°24'713.9
2018-Feb-18 07:31N 52°36' E 004°16'714.0
2018-Feb-18 07:01N 52°41' E 004°07'714.1
2018-Feb-18 06:31N 52°46' E 003°58'21017.2
2018-Feb-17 18:17N 54°49' W 000°51'519.0
2018-Feb-17 18:01N 54°51' W 000°58'918.9
2018-Feb-17 17:31N 54°57' W 001°12'917.0
2018-Feb-17 17:00N 55°01' W 001°25'2 3.3
2018-Feb-17 16:29N 54°59' W 001°27'0 0.0
2018-Feb-17 15:53N 54°59' W 001°27'0 0.0
2018-Feb-17 15:26N 54°59' W 001°27'0 0.0
2018-Feb-17 14:56N 54°59' W 001°27'0 0.0
2018-Feb-17 14:26N 54°59' W 001°27'0 0.0
2018-Feb-17 13:56N 54°59' W 001°27'0 0.0
2018-Feb-17 13:26N 54°59' W 001°27'0 0.0
2018-Feb-17 12:56N 54°59' W 001°27'0 0.0
2018-Feb-17 12:29N 54°59' W 001°27'0 0.0
2018-Feb-17 11:59N 54°59' W 001°27'0 0.0
2018-Feb-17 11:29N 54°59' W 001°27'0 0.0
2018-Feb-17 10:59N 54°59' W 001°27'0 0.0
2018-Feb-17 10:29N 54°59' W 001°27'0 0.0
2018-Feb-17 09:59N 54°59' W 001°27'0 0.0
2018-Feb-17 09:29N 54°59' W 001°27'0 0.9
2018-Feb-17 09:00N 54°60' W 001°27'5 9.3
2018-Feb-17 08:30N 54°60' W 001°19'815.3
2018-Feb-17 08:00N 54°55' W 001°08'917.0
2018-Feb-17 07:30N 54°50' W 000°55'2218.0
2018-Feb-17 06:17N 54°38' W 000°24'517.7
2018-Feb-17 05:59N 54°35' W 000°17'817.4
2018-Feb-17 05:30N 54°31' W 000°04'917.4
2018-Feb-17 05:00N 54°26' E 000°08'917.4
2018-Feb-17 04:30N 54°21' E 000°20'16216.0
2018-Feb-16 18:21N 52°45' E 004°01'1315.7
2018-Feb-16 17:33N 52°37' E 004°16'116.1
2018-Feb-16 17:30N 52°36' E 004°17'815.8
2018-Feb-16 17:00N 52°31' E 004°26'611.7
2018-Feb-16 16:30N 52°28' E 004°35'0 0.0
2018-Feb-16 16:01N 52°28' E 004°35'0 0.0
2018-Feb-16 15:30N 52°28' E 004°35'0 0.0
2018-Feb-16 15:00N 52°28' E 004°35'0 0.0
2018-Feb-16 14:30N 52°28' E 004°35'0 0.0
2018-Feb-16 14:00N 52°28' E 004°35'0 0.0
2018-Feb-16 13:30N 52°28' E 004°35'0 0.0
2018-Feb-16 13:00N 52°28' E 004°35'0 0.0
2018-Feb-16 12:30N 52°28' E 004°35'0 0.0
2018-Feb-16 11:57N 52°28' E 004°35'0 0.0
2018-Feb-16 11:30N 52°28' E 004°35'0 0.0
2018-Feb-16 11:00N 52°28' E 004°35'0 0.0
2018-Feb-16 10:30N 52°28' E 004°35'0 0.0
2018-Feb-16 10:00N 52°28' E 004°35'0 0.0
2018-Feb-16 09:30N 52°28' E 004°35'0 0.0
2018-Feb-16 08:57N 52°28' E 004°35'0 0.1
2018-Feb-16 08:30N 52°28' E 004°35'4 8.7
2018-Feb-16 08:00N 52°29' E 004°28'713.4
2018-Feb-16 07:30N 52°34' E 004°20'714.6
2018-Feb-16 07:00N 52°39' E 004°12'16216.7
2018-Feb-15 21:18N 54°15' E 000°34'518.5
2018-Feb-15 21:00N 54°18' E 000°26'1019.5
2018-Feb-15 20:30N 54°24' E 000°13'1019.6
2018-Feb-15 20:00N 54°29' W 000°01'1019.7
2018-Feb-15 19:30N 54°35' W 000°15'2720.1
2018-Feb-15 18:09N 54°50' W 000°55'320.4
2018-Feb-15 18:00N 54°52' W 000°59'1020.3
2018-Feb-15 17:30N 54°57' W 001°14'815.8
2018-Feb-15 17:00N 55°00' W 001°26'1 1.3
2018-Feb-15 16:21N 54°59' W 001°27'0 0.0
2018-Feb-15 15:58N 54°59' W 001°27'0 0.0
2018-Feb-15 15:28N 54°59' W 001°27'0 0.0
2018-Feb-15 14:58N 54°59' W 001°27'0 0.0
2018-Feb-15 14:28N 54°59' W 001°27'0 0.0
2018-Feb-15 13:58N 54°59' W 001°27'0 0.0
2018-Feb-15 13:28N 54°59' W 001°27'0 0.0
2018-Feb-15 12:58N 54°59' W 001°27'0 0.0
2018-Feb-15 12:28N 54°59' W 001°27'0 0.0
2018-Feb-15 11:58N 54°59' W 001°27'0 0.0
2018-Feb-15 11:19N 54°59' W 001°27'0 0.0
2018-Feb-15 10:52N 54°59' W 001°27'0 0.0
2018-Feb-15 10:22N 54°59' W 001°27'0 0.0
2018-Feb-15 09:52N 54°59' W 001°27'0 0.0
2018-Feb-15 09:22N 54°59' W 001°27'1 1.9
2018-Feb-15 09:00N 55°00' W 001°27'612.5
2018-Feb-15 08:30N 54°59' W 001°16'918.4
2018-Feb-15 08:00N 54°54' W 001°02'918.3
2018-Feb-15 07:30N 54°49' W 000°50'1817.6
2018-Feb-15 06:28N 54°38' W 000°24'817.1
2018-Feb-15 06:00N 54°34' W 000°13'917.1
2018-Feb-15 05:30N 54°29' W 000°00'816.9
2018-Feb-15 05:00N 54°24' E 000°12'816.8
2018-Feb-15 04:30N 54°20' E 000°24'17017.1
2018-Feb-14 18:32N 52°38' E 004°13'216.0
2018-Feb-14 18:25N 52°37' E 004°16'716.1
2018-Feb-14 18:00N 52°32' E 004°23'815.9
2018-Feb-14 17:30N 52°28' E 004°34'0 0.9
2018-Feb-14 17:00N 52°28' E 004°35'0 0.0
2018-Feb-14 16:30N 52°28' E 004°35'0 0.0
2018-Feb-14 16:00N 52°28' E 004°35'0 0.0
2018-Feb-14 15:27N 52°28' E 004°35'0 0.0
2018-Feb-14 15:00N 52°28' E 004°35'0 0.0
2018-Feb-14 14:30N 52°28' E 004°35'0 0.0
2018-Feb-14 13:57N 52°28' E 004°35'0 0.0
2018-Feb-14 13:30N 52°28' E 004°35'0 0.0
2018-Feb-14 13:00N 52°28' E 004°35'0 0.0
2018-Feb-14 12:30N 52°28' E 004°35'0 0.0
2018-Feb-14 11:57N 52°28' E 004°35'0 0.0
2018-Feb-14 11:30N 52°28' E 004°35'0 0.0
2018-Feb-14 11:00N 52°28' E 004°35'0 0.0
2018-Feb-14 10:30N 52°28' E 004°35'2 4.5
2018-Feb-14 10:00N 52°28' E 004°31'918.3
2018-Feb-14 09:30N 52°29' E 004°16'918.4
2018-Feb-14 09:00N 52°28' E 004°01'918.3
2018-Feb-14 08:30N 52°27' E 003°46'6919.0
2018-Feb-14 04:51N 52°47' E 001°57'719.6
2018-Feb-14 04:30N 52°50' E 001°48'1019.4
2018-Feb-14 04:00N 52°56' E 001°35'1019.2
2018-Feb-14 03:30N 53°04' E 001°25'1019.0
2018-Feb-14 03:00N 53°12' E 001°17'1018.8
2018-Feb-14 02:29N 53°20' E 001°09'5712.7
2018-Feb-13 22:00N 54°14' E 000°37'817.1
2018-Feb-13 21:30N 54°19' E 000°25'917.4
2018-Feb-13 21:00N 54°23' E 000°12'917.6
2018-Feb-13 20:30N 54°28' W 000°01'917.7
2018-Feb-13 20:00N 54°34' W 000°12'917.8
2018-Feb-13 19:31N 54°38' W 000°25'1417.9
2018-Feb-13 18:43N 54°46' W 000°46'418.0
2018-Feb-13 18:30N 54°48' W 000°51'918.1
2018-Feb-13 18:00N 54°53' W 001°04'918.1
2018-Feb-13 17:30N 54°59' W 001°17'511.0
2018-Feb-13 17:00N 54°60' W 001°27'0 0.6
2018-Feb-13 16:31N 54°59' W 001°27'0 0.0
2018-Feb-13 15:58N 54°59' W 001°27'0 0.0
2018-Feb-13 15:28N 54°59' W 001°27'0 0.0
2018-Feb-13 14:58N 54°59' W 001°27'0 0.0
2018-Feb-13 14:28N 54°59' W 001°27'0 0.0
2018-Feb-13 13:46N 54°59' W 001°27'0 0.0
2018-Feb-13 13:28N 54°59' W 001°27'0 0.0
2018-Feb-13 12:58N 54°59' W 001°27'0 0.0
2018-Feb-13 12:28N 54°59' W 001°27'0 0.0
2018-Feb-13 11:49N 54°59' W 001°27'0 0.0
2018-Feb-13 11:19N 54°59' W 001°27'0 0.0
2018-Feb-13 10:52N 54°59' W 001°27'0 0.0
2018-Feb-13 10:22N 54°59' W 001°27'0 0.0
2018-Feb-13 09:52N 54°59' W 001°27'0 0.0
2018-Feb-13 09:17N 54°59' W 001°27'0 0.6
2018-Feb-13 09:01N 54°60' W 001°27'4 9.0
2018-Feb-13 08:31N 55°00' W 001°19'815.0
2018-Feb-13 08:00N 54°56' W 001°08'714.4
2018-Feb-13 07:30N 54°52' W 000°58'714.6
2018-Feb-13 07:00N 54°48' W 000°47'2014.9
2018-Feb-13 05:40N 54°37' W 000°19'215.7
2018-Feb-13 05:31N 54°35' W 000°15'815.5
2018-Feb-13 05:01N 54°31' W 000°04'917.4
2018-Feb-13 04:31N 54°26' E 000°08'917.5
2018-Feb-13 04:01N 54°21' E 000°21'17516.6
2018-Feb-12 17:26N 52°36' E 004°17'614.2
2018-Feb-12 17:00N 52°32' E 004°25'  
Track history (hours):
 
Tides and Currents Weather Stations Pressure Air Temp Water Temp Dewpoint Dewpoint Depression Visibility Wind Speed Wind Dir Waves Ship Positions

King of Scandinavia

Ship's website: http://www.dfds.co.uk/DSW/EN/OnBoard/na/KING.htm

Last reported at 2018-Feb-22 17:00 UTC. Time now 2018-Feb-22 17:10 UTC.
Position N 52°33' E 004°21'.

Length 166 m; beam 27.6 m; draft 6.2 m.

Type: Ship. MMSI: 220449000.

Date/timePositionNaut miles runAvg speedWind from/ knotsBaromVisibWave heightAir tempDewpointWater temp
2018-Feb-22 17:00N 52°33' E 004°21'816.4
2018-Feb-22 16:30N 52°28' E 004°32'2 3.6
2018-Feb-22 16:00N 52°28' E 004°35'0 0.0
2018-Feb-22 15:29N 52°28' E 004°35'0 0.0
2018-Feb-22 14:59N 52°28' E 004°35'0 0.0
2018-Feb-22 14:29N 52°28' E 004°35'0 0.0
2018-Feb-22 13:53N 52°28' E 004°35'0 0.0
2018-Feb-22 13:26N 52°28' E 004°35'0 0.0
2018-Feb-22 12:59N 52°28' E 004°35'0 0.0
2018-Feb-22 12:29N 52°28' E 004°35'0 0.0
2018-Feb-22 11:59N 52°28' E 004°35'0 0.0
2018-Feb-22 11:29N 52°28' E 004°35'0 0.0
2018-Feb-22 10:59N 52°28' E 004°35'0 0.0
2018-Feb-22 10:29N 52°28' E 004°35'0 0.0
2018-Feb-22 09:59N 52°28' E 004°35'0 0.0
2018-Feb-22 09:29N 52°28' E 004°35'0 0.0
2018-Feb-22 08:59N 52°28' E 004°35'0 0.4
2018-Feb-22 08:30N 52°28' E 004°35'4 7.7
2018-Feb-22 08:00N 52°29' E 004°29'713.8
2018-Feb-22 07:30N 52°34' E 004°21'815.9
2018-Feb-22 07:00N 52°39' E 004°11'22220.7
2018-Feb-21 20:16N 54°49' W 000°55'1 2.5
2018-Feb-21 20:01N 54°49' W 000°56'0 0.0
2018-Feb-21 19:31N 54°49' W 000°56'1 1.3
2018-Feb-21 19:01N 54°49' W 000°55'0 0.7
2018-Feb-21 18:31N 54°49' W 000°54'1121.0
2018-Feb-21 18:01N 54°55' W 001°09'1019.8
2018-Feb-21 17:31N 55°01' W 001°23'3 5.1
2018-Feb-21 17:01N 54°59' W 001°27'0 0.1
2018-Feb-21 16:30N 54°59' W 001°27'0 0.0
2018-Feb-21 16:01N 54°59' W 001°27'0 0.0
2018-Feb-21 15:31N 54°59' W 001°27'0 0.0
2018-Feb-21 15:01N 54°59' W 001°27'0 0.0
2018-Feb-21 14:31N 54°59' W 001°27'0 0.0
2018-Feb-21 14:01N 54°59' W 001°27'0 0.0
2018-Feb-21 13:31N 54°59' W 001°27'0 0.0
2018-Feb-21 13:00N 54°59' W 001°27'0 0.0
2018-Feb-21 12:31N 54°59' W 001°27'0 0.0
2018-Feb-21 12:01N 54°59' W 001°27'0 0.0
2018-Feb-21 11:30N 54°59' W 001°27'0 0.0
2018-Feb-21 11:01N 54°59' W 001°27'0 0.0
2018-Feb-21 10:31N 54°59' W 001°27'0 0.0
2018-Feb-21 10:01N 54°59' W 001°27'1 2.4
2018-Feb-21 09:30N 55°00' W 001°26'0 0.5
2018-Feb-21 08:58N 55°00' W 001°26'817.2
2018-Feb-21 08:31N 54°58' W 001°13'713.6
2018-Feb-21 08:01N 54°54' W 001°04'19715.7
2018-Feb-20 19:27N 53°00' E 003°31'816.1
2018-Feb-20 18:59N 52°56' E 003°41'816.2
2018-Feb-20 18:30N 52°51' E 003°51'816.3
2018-Feb-20 18:00N 52°44' E 003°59'1316.6
2018-Feb-20 17:14N 52°37' E 004°16'417.0
2018-Feb-20 17:00N 52°34' E 004°20'816.5
2018-Feb-20 16:31N 52°29' E 004°30'3 5.9
2018-Feb-20 16:00N 52°28' E 004°35'0 0.0
2018-Feb-20 15:28N 52°28' E 004°35'0 0.0
2018-Feb-20 14:58N 52°28' E 004°35'0 0.0
2018-Feb-20 14:28N 52°28' E 004°35'0 0.0
2018-Feb-20 13:58N 52°28' E 004°35'0 0.0
2018-Feb-20 13:28N 52°28' E 004°35'0 0.0
2018-Feb-20 12:58N 52°28' E 004°35'0 0.0
2018-Feb-20 12:28N 52°28' E 004°35'0 0.0
2018-Feb-20 11:58N 52°28' E 004°35'0 0.0
2018-Feb-20 11:28N 52°28' E 004°35'0 0.0
2018-Feb-20 10:58N 52°28' E 004°35'0 0.0
2018-Feb-20 10:28N 52°28' E 004°35'0 0.0
2018-Feb-20 09:58N 52°28' E 004°35'0 0.0
2018-Feb-20 09:28N 52°28' E 004°35'0 0.0
2018-Feb-20 08:55N 52°28' E 004°35'0 0.2
2018-Feb-20 08:30N 52°28' E 004°35'4 8.0
2018-Feb-20 08:00N 52°29' E 004°29'714.2
2018-Feb-20 07:30N 52°34' E 004°21'815.7
2018-Feb-20 07:00N 52°39' E 004°11'917.3
2018-Feb-20 06:30N 52°45' E 004°00'1217.4
2018-Feb-20 05:47N 52°53' E 003°44'20120.9
2018-Feb-19 20:09N 54°49' W 000°54'0 0.0
2018-Feb-19 20:00N 54°49' W 000°54'0 0.1
2018-Feb-19 19:30N 54°49' W 000°54'6 8.9
2018-Feb-19 18:51N 54°52' W 001°02'0 0.0
2018-Feb-19 18:11N 54°52' W 001°02'1460.8
2018-Feb-19 17:58N 55°00' W 001°21'3 5.9
2018-Feb-19 17:31N 55°00' W 001°26'0 0.6
2018-Feb-19 17:00N 55°00' W 001°27'1 1.6
2018-Feb-19 16:31N 54°59' W 001°27'0 0.0
2018-Feb-19 15:54N 54°59' W 001°27'0 0.0
2018-Feb-19 15:23N 54°59' W 001°27'0 0.0
2018-Feb-19 14:53N 54°59' W 001°27'0 0.0
2018-Feb-19 14:20N 54°59' W 001°27'0 0.0
2018-Feb-19 13:56N 54°59' W 001°27'0 0.0
2018-Feb-19 13:26N 54°59' W 001°27'0 0.0
2018-Feb-19 12:56N 54°59' W 001°27'0 0.0
2018-Feb-19 12:31N 54°59' W 001°27'0 0.0
2018-Feb-19 12:01N 54°59' W 001°27'0 0.0
2018-Feb-19 11:31N 54°59' W 001°27'0 0.0
2018-Feb-19 10:59N 54°59' W 001°27'0 0.0
2018-Feb-19 10:29N 54°59' W 001°27'4 7.9
2018-Feb-19 10:01N 55°01' W 001°21'0 0.2
2018-Feb-19 09:31N 55°01' W 001°21'0 0.9
2018-Feb-19 09:01N 55°00' W 001°20'612.1
2018-Feb-19 08:31N 54°57' W 001°12'4 8.3
2018-Feb-19 08:00N 54°55' W 001°06'1121.6
2018-Feb-19 07:30N 54°49' W 000°50'21215.7
2018-Feb-18 17:58N 52°45' E 004°02'1216.4
2018-Feb-18 17:14N 52°37' E 004°17'416.8
2018-Feb-18 17:00N 52°34' E 004°21'816.3
2018-Feb-18 16:31N 52°29' E 004°31'3 5.5
2018-Feb-18 16:00N 52°28' E 004°35'0 0.0
2018-Feb-18 15:31N 52°28' E 004°35'0 0.0
2018-Feb-18 14:55N 52°28' E 004°35'0 0.0
2018-Feb-18 14:31N 52°28' E 004°35'0 0.0
2018-Feb-18 14:01N 52°28' E 004°35'0 0.0
2018-Feb-18 13:31N 52°28' E 004°35'0 0.0
2018-Feb-18 13:01N 52°28' E 004°35'0 0.0
2018-Feb-18 12:31N 52°28' E 004°35'0 0.0
2018-Feb-18 11:55N 52°28' E 004°35'0 0.0
2018-Feb-18 11:22N 52°28' E 004°35'0 0.0
2018-Feb-18 11:01N 52°28' E 004°35'0 0.0
2018-Feb-18 10:31N 52°28' E 004°35'0 0.0
2018-Feb-18 10:01N 52°28' E 004°35'0 0.0
2018-Feb-18 09:31N 52°28' E 004°35'0 0.0
2018-Feb-18 08:59N 52°28' E 004°35'2 3.4
2018-Feb-18 08:30N 52°28' E 004°32'612.7
2018-Feb-18 08:00N 52°32' E 004°24'713.9
2018-Feb-18 07:31N 52°36' E 004°16'714.0
2018-Feb-18 07:01N 52°41' E 004°07'714.1
2018-Feb-18 06:31N 52°46' E 003°58'21017.2
2018-Feb-17 18:17N 54°49' W 000°51'519.0
2018-Feb-17 18:01N 54°51' W 000°58'918.9
2018-Feb-17 17:31N 54°57' W 001°12'917.0
2018-Feb-17 17:00N 55°01' W 001°25'2 3.3
2018-Feb-17 16:29N 54°59' W 001°27'0 0.0
2018-Feb-17 15:53N 54°59' W 001°27'0 0.0
2018-Feb-17 15:26N 54°59' W 001°27'0 0.0
2018-Feb-17 14:56N 54°59' W 001°27'0 0.0
2018-Feb-17 14:26N 54°59' W 001°27'0 0.0
2018-Feb-17 13:56N 54°59' W 001°27'0 0.0
2018-Feb-17 13:26N 54°59' W 001°27'0 0.0
2018-Feb-17 12:56N 54°59' W 001°27'0 0.0
2018-Feb-17 12:29N 54°59' W 001°27'0 0.0
2018-Feb-17 11:59N 54°59' W 001°27'0 0.0
2018-Feb-17 11:29N 54°59' W 001°27'0 0.0
2018-Feb-17 10:59N 54°59' W 001°27'0 0.0
2018-Feb-17 10:29N 54°59' W 001°27'0 0.0
2018-Feb-17 09:59N 54°59' W 001°27'0 0.0
2018-Feb-17 09:29N 54°59' W 001°27'0 0.9
2018-Feb-17 09:00N 54°60' W 001°27'5 9.3
2018-Feb-17 08:30N 54°60' W 001°19'815.3
2018-Feb-17 08:00N 54°55' W 001°08'917.0
2018-Feb-17 07:30N 54°50' W 000°55'2218.0
2018-Feb-17 06:17N 54°38' W 000°24'517.7
2018-Feb-17 05:59N 54°35' W 000°17'817.4
2018-Feb-17 05:30N 54°31' W 000°04'917.4
2018-Feb-17 05:00N 54°26' E 000°08'917.4
2018-Feb-17 04:30N 54°21' E 000°20'16216.0
2018-Feb-16 18:21N 52°45' E 004°01'1315.7
2018-Feb-16 17:33N 52°37' E 004°16'116.1
2018-Feb-16 17:30N 52°36' E 004°17'815.8
2018-Feb-16 17:00N 52°31' E 004°26'611.7
2018-Feb-16 16:30N 52°28' E 004°35'0 0.0
2018-Feb-16 16:01N 52°28' E 004°35'0 0.0
2018-Feb-16 15:30N 52°28' E 004°35'0 0.0
2018-Feb-16 15:00N 52°28' E 004°35'0 0.0
2018-Feb-16 14:30N 52°28' E 004°35'0 0.0
2018-Feb-16 14:00N 52°28' E 004°35'0 0.0
2018-Feb-16 13:30N 52°28' E 004°35'0 0.0
2018-Feb-16 13:00N 52°28' E 004°35'0 0.0
2018-Feb-16 12:30N 52°28' E 004°35'0 0.0
2018-Feb-16 11:57N 52°28' E 004°35'0 0.0
2018-Feb-16 11:30N 52°28' E 004°35'0 0.0
2018-Feb-16 11:00N 52°28' E 004°35'0 0.0
2018-Feb-16 10:30N 52°28' E 004°35'0 0.0
2018-Feb-16 10:00N 52°28' E 004°35'0 0.0
2018-Feb-16 09:30N 52°28' E 004°35'0 0.0
2018-Feb-16 08:57N 52°28' E 004°35'0 0.1
2018-Feb-16 08:30N 52°28' E 004°35'4 8.7
2018-Feb-16 08:00N 52°29' E 004°28'713.4
2018-Feb-16 07:30N 52°34' E 004°20'714.6
2018-Feb-16 07:00N 52°39' E 004°12'16216.7
2018-Feb-15 21:18N 54°15' E 000°34'518.5
2018-Feb-15 21:00N 54°18' E 000°26'1019.5
2018-Feb-15 20:30N 54°24' E 000°13'1019.6
2018-Feb-15 20:00N 54°29' W 000°01'1019.7
2018-Feb-15 19:30N 54°35' W 000°15'2720.1
2018-Feb-15 18:09N 54°50' W 000°55'320.4
2018-Feb-15 18:00N 54°52' W 000°59'1020.3
2018-Feb-15 17:30N 54°57' W 001°14'815.8
2018-Feb-15 17:00N 55°00' W 001°26'1 1.3
2018-Feb-15 16:21N 54°59' W 001°27'0 0.0
2018-Feb-15 15:58N 54°59' W 001°27'0 0.0
2018-Feb-15 15:28N 54°59' W 001°27'0 0.0
2018-Feb-15 14:58N 54°59' W 001°27'0 0.0
2018-Feb-15 14:28N 54°59' W 001°27'0 0.0
2018-Feb-15 13:58N 54°59' W 001°27'0 0.0
2018-Feb-15 13:28N 54°59' W 001°27'0 0.0
2018-Feb-15 12:58N 54°59' W 001°27'0 0.0
2018-Feb-15 12:28N 54°59' W 001°27'0 0.0
2018-Feb-15 11:58N 54°59' W 001°27'0 0.0
2018-Feb-15 11:19N 54°59' W 001°27'0 0.0
2018-Feb-15 10:52N 54°59' W 001°27'0 0.0
2018-Feb-15 10:22N 54°59' W 001°27'0 0.0
2018-Feb-15 09:52N 54°59' W 001°27'0 0.0
2018-Feb-15 09:22N 54°59' W 001°27'1 1.9
2018-Feb-15 09:00N 55°00' W 001°27'612.5
2018-Feb-15 08:30N 54°59' W 001°16'918.4
2018-Feb-15 08:00N 54°54' W 001°02'918.3
2018-Feb-15 07:30N 54°49' W 000°50'1817.6
2018-Feb-15 06:28N 54°38' W 000°24'817.1
2018-Feb-15 06:00N 54°34' W 000°13'917.1
2018-Feb-15 05:30N 54°29' W 000°00'816.9
2018-Feb-15 05:00N 54°24' E 000°12'816.8
2018-Feb-15 04:30N 54°20' E 000°24'17017.1
2018-Feb-14 18:32N 52°38' E 004°13'216.0
2018-Feb-14 18:25N 52°37' E 004°16'716.1
2018-Feb-14 18:00N 52°32' E 004°23'815.9
2018-Feb-14 17:30N 52°28' E 004°34'0 0.9
2018-Feb-14 17:00N 52°28' E 004°35'0 0.0
2018-Feb-14 16:30N 52°28' E 004°35'0 0.0
2018-Feb-14 16:00N 52°28' E 004°35'0 0.0
2018-Feb-14 15:27N 52°28' E 004°35'0 0.0
2018-Feb-14 15:00N 52°28' E 004°35'0 0.0
2018-Feb-14 14:30N 52°28' E 004°35'0 0.0
2018-Feb-14 13:57N 52°28' E 004°35'0 0.0
2018-Feb-14 13:30N 52°28' E 004°35'0 0.0
2018-Feb-14 13:00N 52°28' E 004°35'0 0.0
2018-Feb-14 12:30N 52°28' E 004°35'0 0.0
2018-Feb-14 11:57N 52°28' E 004°35'0 0.0
2018-Feb-14 11:30N 52°28' E 004°35'0 0.0
2018-Feb-14 11:00N 52°28' E 004°35'0 0.0
2018-Feb-14 10:30N 52°28' E 004°35'2 4.5
2018-Feb-14 10:00N 52°28' E 004°31'918.3
2018-Feb-14 09:30N 52°29' E 004°16'918.4
2018-Feb-14 09:00N 52°28' E 004°01'918.3
2018-Feb-14 08:30N 52°27' E 003°46'6919.0
2018-Feb-14 04:51N 52°47' E 001°57'719.6
2018-Feb-14 04:30N 52°50' E 001°48'1019.4
2018-Feb-14 04:00N 52°56' E 001°35'1019.2
2018-Feb-14 03:30N 53°04' E 001°25'1019.0
2018-Feb-14 03:00N 53°12' E 001°17'1018.8
2018-Feb-14 02:29N 53°20' E 001°09'5712.7
2018-Feb-13 22:00N 54°14' E 000°37'817.1
2018-Feb-13 21:30N 54°19' E 000°25'917.4
2018-Feb-13 21:00N 54°23' E 000°12'917.6
2018-Feb-13 20:30N 54°28' W 000°01'917.7
2018-Feb-13 20:00N 54°34' W 000°12'917.8
2018-Feb-13 19:31N 54°38' W 000°25'1417.9
2018-Feb-13 18:43N 54°46' W 000°46'418.0
2018-Feb-13 18:30N 54°48' W 000°51'918.1
2018-Feb-13 18:00N 54°53' W 001°04'918.1
2018-Feb-13 17:30N 54°59' W 001°17'511.0
2018-Feb-13 17:00N 54°60' W 001°27'0 0.6
2018-Feb-13 16:31N 54°59' W 001°27'0 0.0
2018-Feb-13 15:58N 54°59' W 001°27'0 0.0
2018-Feb-13 15:28N 54°59' W 001°27'0 0.0
2018-Feb-13 14:58N 54°59' W 001°27'0 0.0
2018-Feb-13 14:28N 54°59' W 001°27'0 0.0
2018-Feb-13 13:46N 54°59' W 001°27'0 0.0
2018-Feb-13 13:28N 54°59' W 001°27'0 0.0
2018-Feb-13 12:58N 54°59' W 001°27'0 0.0
2018-Feb-13 12:28N 54°59' W 001°27'0 0.0
2018-Feb-13 11:49N 54°59' W 001°27'0 0.0
2018-Feb-13 11:19N 54°59' W 001°27'0 0.0
2018-Feb-13 10:52N 54°59' W 001°27'0 0.0
2018-Feb-13 10:22N 54°59' W 001°27'0 0.0
2018-Feb-13 09:52N 54°59' W 001°27'0 0.0
2018-Feb-13 09:17N 54°59' W 001°27'0 0.6
2018-Feb-13 09:01N 54°60' W 001°27'4 9.0
2018-Feb-13 08:31N 55°00' W 001°19'815.0
2018-Feb-13 08:00N 54°56' W 001°08'714.4
2018-Feb-13 07:30N 54°52' W 000°58'714.6
2018-Feb-13 07:00N 54°48' W 000°47'2014.9
2018-Feb-13 05:40N 54°37' W 000°19'215.7
2018-Feb-13 05:31N 54°35' W 000°15'815.5
2018-Feb-13 05:01N 54°31' W 000°04'917.4
2018-Feb-13 04:31N 54°26' E 000°08'917.5
2018-Feb-13 04:01N 54°21' E 000°21'17516.6
2018-Feb-12 17:26N 52°36' E 004°17'614.2
2018-Feb-12 17:00N 52°32' E 004°25'  

Dump ship's entire track history